^^
Saratoga-Weather Station Historical Data
Daily Summary for January 19, 2022 Units:  Both    English   Metric
Daily Weekly Monthly Yearly Custom
  High: Low: Average:
Temperature: 40.3 °F /  4.6 °C 30.7 °F /  -0.7 °C 35.8 °F /  2.1 °C
Dew Point: 37.2 °F /  2.9 °C 29.3 °F /  -1.5 °C 34 °F /  1.1 °C
Humidity: 96% 85% 94%
Wind Speed: 12.1mph /  19.5km/h - 2.2mph /  3.5km/h
Wind Gust: 14mph /  22.5km/h - -
Wind- - SW
Pressure: 30.5 in /  1031.8 hPa 30.2 in /  1024.0 hPa -
Precipitation: 0.06 in /  1.5 mm    
Historical Graphs
 
 
Tabular Data for January 19, 2022
Time Temperature Dew Point Pressure Wind Wind Speed Wind Gust Humidity Rainfall Rate (Hourly) solar
00:03 40.1 °F /  4.5 °C 36.3 °F /  2.4 °C 30.5in /  1031.8hPa ENE 2mph /  3.2km/h 4mph /  6.4km/h 86% 0in /  0.0mm 0 W/m2
00:08 40.1 °F /  4.5 °C 36 °F /  2.2 °C 30.5in /  1031.8hPa ENE 4.9mph /  7.9km/h 7mph /  11.3km/h 85% 0in /  0.0mm 0 W/m2
00:13 40.3 °F /  4.6 °C 36.1 °F /  2.3 °C 30.5in /  1031.8hPa ESE 8.9mph /  14.3km/h 9mph /  14.5km/h 85% 0in /  0.0mm 0 W/m2
00:18 40.3 °F /  4.6 °C 36.1 °F /  2.3 °C 30.5in /  1031.5hPa ENE 4mph /  6.4km/h 6mph /  9.7km/h 85% 0in /  0.0mm 0 W/m2
00:23 40.3 °F /  4.6 °C 36.1 °F /  2.3 °C 30.5in /  1031.8hPa East 4mph /  6.4km/h 7mph /  11.3km/h 85% 0in /  0.0mm 0 W/m2
00:28 40.1 °F /  4.5 °C 36 °F /  2.2 °C 30.5in /  1031.8hPa SE 2mph /  3.2km/h 6mph /  9.7km/h 85% 0in /  0.0mm 0 W/m2
00:33 40.1 °F /  4.5 °C 36 °F /  2.2 °C 30.5in /  1031.5hPa ESE 2mph /  3.2km/h 7mph /  11.3km/h 85% 0in /  0.0mm 0 W/m2
00:38 39.9 °F /  4.4 °C 35.8 °F /  2.1 °C 30.5in /  1031.5hPa ESE 2mph /  3.2km/h 4mph /  6.4km/h 85% 0in /  0.0mm 0 W/m2
00:43 39.9 °F /  4.4 °C 35.8 °F /  2.1 °C 30.5in /  1031.2hPa ESE 4mph /  6.4km/h 10mph /  16.1km/h 85% 0in /  0.0mm 0 W/m2
00:48 39.7 °F /  4.3 °C 35.6 °F /  2 °C 30.5in /  1031.5hPa ENE 2.9mph /  4.7km/h 3mph /  4.8km/h 85% 0in /  0.0mm 0 W/m2
00:53 39.7 °F /  4.3 °C 35.6 °F /  2 °C 30.5in /  1031.2hPa ESE 0.9mph /  1.4km/h 5mph /  8km/h 85% 0in /  0.0mm 0 W/m2
00:58 39.6 °F /  4.2 °C 35.4 °F /  1.9 °C 30.5in /  1031.2hPa ESE 4mph /  6.4km/h 5mph /  8km/h 85% 0in /  0.0mm 0 W/m2
01:03 39.6 °F /  4.2 °C 35.8 °F /  2.1 °C 30.5in /  1031.5hPa ESE 0.9mph /  1.4km/h 6mph /  9.7km/h 86% 0in /  0.0mm 0 W/m2
01:08 39.6 °F /  4.2 °C 35.8 °F /  2.1 °C 30.5in /  1031.5hPa East 0.9mph /  1.4km/h 4mph /  6.4km/h 86% 0in /  0.0mm 0 W/m2
01:13 39.4 °F /  4.1 °C 35.6 °F /  2 °C 30.5in /  1031.2hPa East 2.9mph /  4.7km/h 7mph /  11.3km/h 86% 0in /  0.0mm 0 W/m2
01:18 39.2 °F /  4 °C 35.4 °F /  1.9 °C 30.5in /  1031.2hPa ESE 0.9mph /  1.4km/h 9mph /  14.5km/h 86% 0in /  0.0mm 0 W/m2
01:23 39 °F /  3.9 °C 35.2 °F /  1.8 °C 30.4in /  1030.8hPa ENE 2.9mph /  4.7km/h 6mph /  9.7km/h 86% 0in /  0.0mm 0 W/m2
01:28 39 °F /  3.9 °C 35.2 °F /  1.8 °C 30.4in /  1030.5hPa ENE 2mph /  3.2km/h 9mph /  14.5km/h 86% 0in /  0.0mm 0 W/m2
01:33 38.8 °F /  3.8 °C 35.1 °F /  1.7 °C 30.4in /  1030.1hPa ENE 2mph /  3.2km/h 5mph /  8km/h 86% 0in /  0.0mm 0 W/m2
01:38 38.7 °F /  3.7 °C 34.9 °F /  1.6 °C 30.4in /  1030.5hPa East 2.9mph /  4.7km/h 3mph /  4.8km/h 86% 0in /  0.0mm 0 W/m2
01:43 38.5 °F /  3.6 °C 34.7 °F /  1.5 °C 30.4in /  1030.5hPa ESE 0.9mph /  1.4km/h 4mph /  6.4km/h 86% 0in /  0.0mm 0 W/m2
01:48 38.1 °F /  3.4 °C 34.5 °F /  1.4 °C 30.4in /  1030.8hPa Calm     87% 0in /  0.0mm 0 W/m2
01:53 37.9 °F /  3.3 °C 34.3 °F /  1.3 °C 30.4in /  1030.5hPa Calm   3mph /  4.8km/h 87% 0in /  0.0mm 0 W/m2
01:58 37.6 °F /  3.1 °C 34 °F /  1.1 °C 30.4in /  1030.5hPa ESE 2mph /  3.2km/h 4mph /  6.4km/h 87% 0in /  0.0mm 0 W/m2
02:03 37.2 °F /  2.9 °C 34 °F /  1.1 °C 30.4in /  1030.1hPa ESE 2mph /  3.2km/h 6mph /  9.7km/h 88% 0in /  0.0mm 0 W/m2
02:08 37 °F /  2.8 °C 33.8 °F /  1 °C 30.4in /  1030.5hPa Calm   1mph /  1.6km/h 88% 0in /  0.0mm 0 W/m2
02:13 36.9 °F /  2.7 °C 33.6 °F /  0.9 °C 30.4in /  1030.5hPa Calm   6mph /  9.7km/h 88% 0in /  0.0mm 0 W/m2
02:19 36.3 °F /  2.4 °C 33.1 °F /  0.6 °C 30.4in /  1030.1hPa Calm     88% 0in /  0.0mm 0 W/m2
02:24 36.1 °F /  2.3 °C 33.3 °F /  0.7 °C 30.4in /  1030.1hPa Calm     89% 0in /  0.0mm 0 W/m2
02:29 35.8 °F /  2.1 °C 32.9 °F /  0.5 °C 30.4in /  1030.1hPa Calm     89% 0in /  0.0mm 0 W/m2
02:34 35.4 °F /  1.9 °C 32.7 °F /  0.4 °C 30.4in /  1030.1hPa Calm     90% 0in /  0.0mm 0 W/m2
02:39 35.2 °F /  1.8 °C 32.5 °F /  0.3 °C 30.4in /  1030.1hPa Calm     90% 0in /  0.0mm 0 W/m2
02:44 35.1 °F /  1.7 °C 32.4 °F /  0.2 °C 30.4in /  1030.1hPa Calm     90% 0in /  0.0mm 0 W/m2
02:49 34.7 °F /  1.5 °C 32 °F /  0 °C 30.4in /  1030.1hPa Calm     90% 0in /  0.0mm 0 W/m2
02:54 34.3 °F /  1.3 °C 32 °F /  0 °C 30.4in /  1030.1hPa ESE 0.9mph /  1.4km/h 2mph /  3.2km/h 91% 0in /  0.0mm 0 W/m2
02:59 34.3 °F /  1.3 °C 32 °F /  0 °C 30.4in /  1030.1hPa Calm     91% 0in /  0.0mm 0 W/m2
03:04 34.2 °F /  1.2 °C 31.8 °F /  -0.1 °C 30.4in /  1029.8hPa Calm   2mph /  3.2km/h 91% 0in /  0.0mm 0 W/m2
03:09 34 °F /  1.1 °C 31.6 °F /  -0.2 °C 30.4in /  1029.8hPa Calm     91% 0in /  0.0mm 0 W/m2
03:14 33.8 °F /  1 °C 31.6 °F /  -0.2 °C 30.4in /  1029.8hPa Calm     92% 0in /  0.0mm 0 W/m2
03:19 33.6 °F /  0.9 °C 31.5 °F /  -0.3 °C 30.4in /  1029.5hPa Calm     92% 0in /  0.0mm 0 W/m2
03:24 33.4 °F /  0.8 °C 31.3 °F /  -0.4 °C 30.4in /  1029.5hPa Calm     92% 0in /  0.0mm 0 W/m2
03:29 33.3 °F /  0.7 °C 31.1 °F /  -0.5 °C 30.4in /  1029.5hPa Calm     92% 0in /  0.0mm 0 W/m2
03:34 33.1 °F /  0.6 °C 31.1 °F /  -0.5 °C 30.4in /  1029.5hPa Calm     92% 0in /  0.0mm 0 W/m2
03:39 32.7 °F /  0.4 °C 30.7 °F /  -0.7 °C 30.4in /  1029.1hPa Calm     92% 0in /  0.0mm 0 W/m2
03:44 32.5 °F /  0.3 °C 30.6 °F /  -0.8 °C 30.4in /  1029.1hPa Calm     92% 0in /  0.0mm 0 W/m2
03:49 32.4 °F /  0.2 °C 30.4 °F /  -0.9 °C 30.4in /  1028.8hPa Calm     92% 0in /  0.0mm 0 W/m2
03:54 32 °F /  0 °C 30 °F /  -1.1 °C 30.4in /  1029.1hPa Calm     92% 0in /  0.0mm 0 W/m2
03:59 31.8 °F /  -0.1 °C 30 °F /  -1.1 °C 30.4in /  1028.8hPa Calm     93% 0in /  0.0mm 0 W/m2
04:04 31.6 °F /  -0.2 °C 29.8 °F /  -1.2 °C 30.4in /  1028.8hPa Calm     93% 0in /  0.0mm 0 W/m2
04:09 31.6 °F /  -0.2 °C 29.8 °F /  -1.2 °C 30.4in /  1028.8hPa Calm     93% 0in /  0.0mm 0 W/m2
04:14 31.6 °F /  -0.2 °C 29.8 °F /  -1.2 °C 30.4in /  1028.8hPa Calm     93% 0in /  0.0mm 0 W/m2
04:19 31.6 °F /  -0.2 °C 29.8 °F /  -1.2 °C 30.4in /  1028.8hPa Calm     93% 0in /  0.0mm 0 W/m2
04:24 31.5 °F /  -0.3 °C 29.7 °F /  -1.3 °C 30.4in /  1028.8hPa Calm     93% 0in /  0.0mm 0 W/m2
04:29 31.5 °F /  -0.3 °C 30 °F /  -1.1 °C 30.4in /  1028.8hPa Calm     94% 0in /  0.0mm 0 W/m2
04:34 31.5 °F /  -0.3 °C 30 °F /  -1.1 °C 30.4in /  1028.8hPa Calm     94% 0in /  0.0mm 0 W/m2
04:39 31.5 °F /  -0.3 °C 30 °F /  -1.1 °C 30.4in /  1028.8hPa Calm     94% 0in /  0.0mm 0 W/m2
04:44 31.3 °F /  -0.4 °C 29.8 °F /  -1.2 °C 30.4in /  1028.8hPa Calm     94% 0in /  0.0mm 0 W/m2
04:49 31.3 °F /  -0.4 °C 29.8 °F /  -1.2 °C 30.4in /  1028.5hPa Calm     94% 0in /  0.0mm 0 W/m2
04:54 31.3 °F /  -0.4 °C 29.8 °F /  -1.2 °C 30.4in /  1028.5hPa Calm     94% 0in /  0.0mm 0 W/m2
04:59 31.3 °F /  -0.4 °C 29.8 °F /  -1.2 °C 30.4in /  1028.5hPa Calm     94% 0in /  0.0mm 0 W/m2
05:04 31.1 °F /  -0.5 °C 29.7 °F /  -1.3 °C 30.4in /  1028.5hPa Calm     94% 0in /  0.0mm 0 W/m2
05:09 30.9 °F /  -0.6 °C 29.5 °F /  -1.4 °C 30.4in /  1028.5hPa Calm     94% 0in /  0.0mm 0 W/m2
05:14 30.9 °F /  -0.6 °C 29.5 °F /  -1.4 °C 30.4in /  1028.5hPa Calm     94% 0in /  0.0mm 0 W/m2
05:19 30.9 °F /  -0.6 °C 29.5 °F /  -1.4 °C 30.4in /  1028.1hPa Calm     94% 0in /  0.0mm 0 W/m2
05:24 30.9 °F /  -0.6 °C 29.5 °F /  -1.4 °C 30.4in /  1028.1hPa Calm     94% 0in /  0.0mm 0 W/m2
05:29 30.7 °F /  -0.7 °C 29.3 °F /  -1.5 °C 30.4in /  1028.1hPa Calm     94% 0in /  0.0mm 0 W/m2
05:34 30.7 °F /  -0.7 °C 29.5 °F /  -1.4 °C 30.4in /  1028.1hPa Calm     95% 0in /  0.0mm 0 W/m2
05:39 30.7 °F /  -0.7 °C 29.5 °F /  -1.4 °C 30.4in /  1028.1hPa Calm     95% 0in /  0.0mm 0 W/m2
05:44 30.7 °F /  -0.7 °C 29.3 °F /  -1.5 °C 30.4in /  1028.1hPa Calm     94% 0in /  0.0mm 0 W/m2
05:49 30.7 °F /  -0.7 °C 29.5 °F /  -1.4 °C 30.4in /  1028.1hPa Calm     95% 0in /  0.0mm 0 W/m2
05:54 30.7 °F /  -0.7 °C 29.5 °F /  -1.4 °C 30.4in /  1028.1hPa Calm     95% 0in /  0.0mm 0 W/m2
05:59 30.7 °F /  -0.7 °C 29.5 °F /  -1.4 °C 30.4in /  1028.1hPa Calm     95% 0in /  0.0mm 0 W/m2
06:04 30.9 °F /  -0.6 °C 29.7 °F /  -1.3 °C 30.4in /  1027.8hPa ESE 1mph /  1.6km/h 1mph /  1.6km/h 95% 0in /  0.0mm 0 W/m2
06:09 31.1 °F /  -0.5 °C 29.8 °F /  -1.2 °C 30.4in /  1027.8hPa Calm     95% 0in /  0.0mm 0 W/m2
06:14 31.3 °F /  -0.4 °C 30 °F /  -1.1 °C 30.4in /  1028.1hPa Calm     95% 0in /  0.0mm 0 W/m2
06:19 31.3 °F /  -0.4 °C 30 °F /  -1.1 °C 30.4in /  1028.1hPa Calm     95% 0in /  0.0mm 0 W/m2
06:24 31.5 °F /  -0.3 °C 30.2 °F /  -1 °C 30.4in /  1027.8hPa Calm     95% 0in /  0.0mm 0 W/m2
06:29 31.5 °F /  -0.3 °C 30.2 °F /  -1 °C 30.4in /  1027.8hPa Calm     95% 0in /  0.0mm 0 W/m2
06:34 31.5 °F /  -0.3 °C 30.2 °F /  -1 °C 30.4in /  1027.8hPa Calm   1mph /  1.6km/h 95% 0in /  0.0mm 0 W/m2
06:39 31.6 °F /  -0.2 °C 30.4 °F /  -0.9 °C 30.4in /  1027.8hPa Calm     95% 0in /  0.0mm 0 W/m2
06:44 31.6 °F /  -0.2 °C 30.4 °F /  -0.9 °C 30.4in /  1027.8hPa Calm     95% 0in /  0.0mm 0 W/m2
06:49 31.8 °F /  -0.1 °C 30.6 °F /  -0.8 °C 30.4in /  1027.8hPa Calm     95% 0in /  0.0mm 0 W/m2
06:54 31.8 °F /  -0.1 °C 30.6 °F /  -0.8 °C 30.4in /  1027.8hPa ESE 0.9mph /  1.4km/h 2mph /  3.2km/h 95% 0in /  0.0mm 0 W/m2
06:59 31.8 °F /  -0.1 °C 30.6 °F /  -0.8 °C 30.4in /  1027.8hPa ESE 0.9mph /  1.4km/h 1mph /  1.6km/h 95% 0in /  0.0mm 0 W/m2
07:04 31.8 °F /  -0.1 °C 30.6 °F /  -0.8 °C 30.4in /  1027.8hPa ESE 2mph /  3.2km/h 2mph /  3.2km/h 95% 0in /  0.0mm 0 W/m2
07:09 31.8 °F /  -0.1 °C 30.6 °F /  -0.8 °C 30.4in /  1027.8hPa Calm     95% 0in /  0.0mm 0 W/m2
07:14 31.8 °F /  -0.1 °C 30.6 °F /  -0.8 °C 30.4in /  1027.8hPa Calm     95% 0in /  0.0mm 0 W/m2
07:19 32 °F /  0 °C 30.7 °F /  -0.7 °C 30.4in /  1027.8hPa Calm     95% 0in /  0.0mm 0 W/m2
07:24 32.2 °F /  0.1 °C 30.9 °F /  -0.6 °C 30.3in /  1027.4hPa Calm     95% 0in /  0.0mm 0 W/m2
07:29 32.4 °F /  0.2 °C 31.1 °F /  -0.5 °C 30.3in /  1027.4hPa Calm     95% 0in /  0.0mm 0 W/m2
07:34 32.5 °F /  0.3 °C 31.5 °F /  -0.3 °C 30.4in /  1027.8hPa Calm   2mph /  3.2km/h 96% 0in /  0.0mm 0 W/m2
07:39 32.7 °F /  0.4 °C 31.6 °F /  -0.2 °C 30.4in /  1027.8hPa Calm   2mph /  3.2km/h 96% 0in /  0.0mm 0 W/m2
07:44 33.1 °F /  0.6 °C 32 °F /  0 °C 30.3in /  1027.4hPa Calm   2mph /  3.2km/h 96% 0in /  0.0mm 0 W/m2
07:49 33.1 °F /  0.6 °C 32 °F /  0 °C 30.3in /  1027.4hPa Calm   2mph /  3.2km/h 96% 0in /  0.0mm 0 W/m2
07:54 33.3 °F /  0.7 °C 32 °F /  0 °C 30.3in /  1027.4hPa Calm   1mph /  1.6km/h 95% 0in /  0.0mm 0 W/m2
07:59 33.3 °F /  0.7 °C 32 °F /  0 °C 30.3in /  1027.4hPa Calm   4mph /  6.4km/h 95% 0in /  0.0mm 0 W/m2
08:04 33.4 °F /  0.8 °C 32.2 °F /  0.1 °C 30.3in /  1027.4hPa Calm   2mph /  3.2km/h 95% 0in /  0.0mm 0 W/m2
08:09 33.6 °F /  0.9 °C 32.4 °F /  0.2 °C 30.3in /  1027.4hPa Calm   4mph /  6.4km/h 95% 0in /  0.0mm 0 W/m2
08:14 33.6 °F /  0.9 °C 32.4 °F /  0.2 °C 30.3in /  1027.4hPa East 2mph /  3.2km/h 3mph /  4.8km/h 95% 0in /  0.0mm 0 W/m2
08:19 33.8 °F /  1 °C 32.2 °F /  0.1 °C 30.3in /  1027.4hPa Calm   1mph /  1.6km/h 94% 0in /  0.0mm 0 W/m2
08:24 34 °F /  1.1 °C 32.4 °F /  0.2 °C 30.3in /  1027.4hPa Calm     94% 0in /  0.0mm 0 W/m2
08:29 34 °F /  1.1 °C 32.4 °F /  0.2 °C 30.3in /  1027.1hPa NE 2mph /  3.2km/h 2mph /  3.2km/h 94% 0in /  0.0mm 0 W/m2
08:34 34.2 °F /  1.2 °C 32.5 °F /  0.3 °C 30.3in /  1027.1hPa NE 2mph /  3.2km/h 2mph /  3.2km/h 94% 0in /  0.0mm 0 W/m2
08:39 34.2 °F /  1.2 °C 32.4 °F /  0.2 °C 30.3in /  1027.1hPa Calm   2mph /  3.2km/h 93% 0in /  0.0mm 0 W/m2
08:44 34.2 °F /  1.2 °C 32.4 °F /  0.2 °C 30.3in /  1027.1hPa East 2mph /  3.2km/h 3mph /  4.8km/h 93% 0in /  0.0mm 0 W/m2
08:49 34.2 °F /  1.2 °C 32.4 °F /  0.2 °C 30.3in /  1027.1hPa ESE 2mph /  3.2km/h 4mph /  6.4km/h 93% 0in /  0.0mm 0 W/m2
08:54 34 °F /  1.1 °C 32.2 °F /  0.1 °C 30.3in /  1027.1hPa ESE 2mph /  3.2km/h 4mph /  6.4km/h 93% 0in /  0.0mm 0 W/m2
08:59 33.8 °F /  1 °C 32 °F /  0 °C 30.3in /  1027.1hPa Calm   1mph /  1.6km/h 93% 0in /  0.0mm 5 W/m2
09:04 33.6 °F /  0.9 °C 31.8 °F /  -0.1 °C 30.3in /  1027.1hPa ESE 0.9mph /  1.4km/h 2mph /  3.2km/h 93% 0in /  0.0mm 5 W/m2
09:09 33.4 °F /  0.8 °C 31.6 °F /  -0.2 °C 30.3in /  1027.1hPa ESE 0.9mph /  1.4km/h 3mph /  4.8km/h 93% 0in /  0.0mm 5 W/m2
09:14 33.3 °F /  0.7 °C 31.5 °F /  -0.3 °C 30.3in /  1027.1hPa ESE 2.9mph /  4.7km/h 3mph /  4.8km/h 93% 0in /  0.0mm 5 W/m2
09:19 33.3 °F /  0.7 °C 31.6 °F /  -0.2 °C 30.3in /  1027.1hPa East 0.9mph /  1.4km/h 2mph /  3.2km/h 94% 0in /  0.0mm 5 W/m2
09:24 33.3 °F /  0.7 °C 31.6 °F /  -0.2 °C 30.3in /  1027.1hPa East 2mph /  3.2km/h 4mph /  6.4km/h 94% 0in /  0.0mm 7 W/m2
09:29 33.1 °F /  0.6 °C 31.5 °F /  -0.3 °C 30.3in /  1027.1hPa ESE 2mph /  3.2km/h 4mph /  6.4km/h 94% 0in /  0.0mm 7 W/m2
09:34 33.1 °F /  0.6 °C 31.5 °F /  -0.3 °C 30.3in /  1026.8hPa East 0.9mph /  1.4km/h 2mph /  3.2km/h 94% 0in /  0.0mm 7 W/m2
09:39 33.1 °F /  0.6 °C 31.5 °F /  -0.3 °C 30.3in /  1027.1hPa ESE 2.9mph /  4.7km/h 4mph /  6.4km/h 94% 0in /  0.0mm 7 W/m2
09:44 33.1 °F /  0.6 °C 31.5 °F /  -0.3 °C 30.3in /  1027.1hPa East 2mph /  3.2km/h 4mph /  6.4km/h 94% 0in /  0.0mm 9 W/m2
09:50 33.1 °F /  0.6 °C 31.5 °F /  -0.3 °C 30.3in /  1027.1hPa Calm   2mph /  3.2km/h 94% 0in /  0.0mm 9 W/m2
09:55 33.1 °F /  0.6 °C 31.5 °F /  -0.3 °C 30.3in /  1027.1hPa East 0.9mph /  1.4km/h 3mph /  4.8km/h 94% 0in /  0.0mm 11 W/m2
10:00 33.1 °F /  0.6 °C 31.8 °F /  -0.1 °C 30.3in /  1027.1hPa ENE 2mph /  3.2km/h 3mph /  4.8km/h 95% 0in /  0.0mm 9 W/m2
10:05 33.1 °F /  0.6 °C 31.8 °F /  -0.1 °C 30.3in /  1027.1hPa ENE 2mph /  3.2km/h 3mph /  4.8km/h 95% 0in /  0.0mm 9 W/m2
10:10 33.3 °F /  0.7 °C 32 °F /  0 °C 30.3in /  1027.1hPa ENE 2mph /  3.2km/h 4mph /  6.4km/h 95% 0in /  0.0mm 11 W/m2
10:15 33.4 °F /  0.8 °C 32.2 °F /  0.1 °C 30.3in /  1026.8hPa ESE 2.9mph /  4.7km/h 3mph /  4.8km/h 95% 0in /  0.0mm 12 W/m2
10:20 33.4 °F /  0.8 °C 32.2 °F /  0.1 °C 30.3in /  1026.8hPa Calm     95% 0in /  0.0mm 12 W/m2
10:25 33.8 °F /  1 °C 32.5 °F /  0.3 °C 30.3in /  1026.8hPa Calm   3mph /  4.8km/h 95% 0in /  0.0mm 12 W/m2
10:30 34.2 °F /  1.2 °C 32.9 °F /  0.5 °C 30.3in /  1026.8hPa Calm   2mph /  3.2km/h 95% 0in /  0.0mm 18 W/m2
10:35 34.3 °F /  1.3 °C 33.1 °F /  0.6 °C 30.3in /  1026.8hPa West 0.9mph /  1.4km/h 6mph /  9.7km/h 95% 0in /  0.0mm 14 W/m2
10:40 34.3 °F /  1.3 °C 33.1 °F /  0.6 °C 30.3in /  1026.8hPa Calm   3mph /  4.8km/h 95% 0in /  0.0mm 16 W/m2
10:45 34.5 °F /  1.4 °C 33.3 °F /  0.7 °C 30.3in /  1026.8hPa NNW 0.9mph /  1.4km/h 6mph /  9.7km/h 95% 0in /  0.0mm 19 W/m2
10:50 34.5 °F /  1.4 °C 33.3 °F /  0.7 °C 30.3in /  1026.8hPa Calm   2mph /  3.2km/h 95% 0in /  0.0mm 21 W/m2
10:55 34.7 °F /  1.5 °C 33.4 °F /  0.8 °C 30.3in /  1026.8hPa Calm   6mph /  9.7km/h 95% 0in /  0.0mm 18 W/m2
11:00 34.9 °F /  1.6 °C 33.6 °F /  0.9 °C 30.3in /  1027.1hPa SE 2mph /  3.2km/h 3mph /  4.8km/h 95% 0in /  0.0mm 16 W/m2
11:05 34.9 °F /  1.6 °C 33.6 °F /  0.9 °C 30.3in /  1027.1hPa Calm   7mph /  11.3km/h 95% 0in /  0.0mm 19 W/m2
11:10 34.9 °F /  1.6 °C 33.6 °F /  0.9 °C 30.3in /  1027.1hPa Calm   4mph /  6.4km/h 95% 0in /  0.0mm 19 W/m2
11:15 34.9 °F /  1.6 °C 33.6 °F /  0.9 °C 30.3in /  1027.1hPa WSW 2mph /  3.2km/h 3mph /  4.8km/h 95% 0in /  0.0mm 21 W/m2
11:20 34.9 °F /  1.6 °C 33.6 °F /  0.9 °C 30.3in /  1027.1hPa Calm     95% 0in /  0.0mm 19 W/m2
11:25 34.9 °F /  1.6 °C 33.6 °F /  0.9 °C 30.3in /  1027.1hPa WNW 2mph /  3.2km/h 5mph /  8km/h 95% 0in /  0.0mm 19 W/m2
11:30 34.9 °F /  1.6 °C 33.6 °F /  0.9 °C 30.3in /  1027.1hPa Calm   2mph /  3.2km/h 95% 0in /  0.0mm 16 W/m2
11:35 34.9 °F /  1.6 °C 33.6 °F /  0.9 °C 30.3in /  1027.1hPa Calm   5mph /  8km/h 95% 0in /  0.0mm 16 W/m2
11:40 35.1 °F /  1.7 °C 33.8 °F /  1 °C 30.3in /  1026.8hPa WNW 0.9mph /  1.4km/h 1mph /  1.6km/h 95% 0in /  0.0mm 14 W/m2
11:45 35.1 °F /  1.7 °C 33.8 °F /  1 °C 30.3in /  1026.8hPa Calm     95% 0in /  0.0mm 18 W/m2
11:50 35.1 °F /  1.7 °C 33.8 °F /  1 °C 30.3in /  1026.8hPa Calm   2mph /  3.2km/h 95% 0in /  0.0mm 25 W/m2
11:55 35.1 °F /  1.7 °C 33.8 °F /  1 °C 30.3in /  1026.8hPa West 2.9mph /  4.7km/h 3mph /  4.8km/h 95% 0in /  0.0mm 26 W/m2
12:00 35.1 °F /  1.7 °C 33.8 °F /  1 °C 30.3in /  1026.8hPa Calm   3mph /  4.8km/h 95% 0in /  0.0mm 26 W/m2
12:05 35.1 °F /  1.7 °C 33.8 °F /  1 °C 30.3in /  1026.8hPa Calm   3mph /  4.8km/h 95% 0in /  0.0mm 26 W/m2
12:10 35.2 °F /  1.8 °C 34 °F /  1.1 °C 30.3in /  1026.4hPa ESE 2.9mph /  4.7km/h 5mph /  8km/h 95% 0in /  0.0mm 25 W/m2
12:15 35.2 °F /  1.8 °C 34 °F /  1.1 °C 30.3in /  1026.4hPa East 2mph /  3.2km/h 3mph /  4.8km/h 95% 0in /  0.0mm 21 W/m2
12:20 35.2 °F /  1.8 °C 34 °F /  1.1 °C 30.3in /  1026.4hPa NW 4.9mph /  7.9km/h 9mph /  14.5km/h 95% 0in /  0.0mm 21 W/m2
12:25 35.2 °F /  1.8 °C 34 °F /  1.1 °C 30.3in /  1026.4hPa WNW 2mph /  3.2km/h 4mph /  6.4km/h 95% 0in /  0.0mm 23 W/m2
12:30 35.2 °F /  1.8 °C 34 °F /  1.1 °C 30.3in /  1026.4hPa Calm   2mph /  3.2km/h 95% 0in /  0.0mm 26 W/m2
12:35 35.4 °F /  1.9 °C 34.2 °F /  1.2 °C 30.3in /  1026.1hPa ESE 2.9mph /  4.7km/h 3mph /  4.8km/h 95% 0in /  0.0mm 21 W/m2
12:40 35.4 °F /  1.9 °C 34.2 °F /  1.2 °C 30.3in /  1026.1hPa SSE 2mph /  3.2km/h 3mph /  4.8km/h 95% 0in /  0.0mm 21 W/m2
12:45 35.4 °F /  1.9 °C 34.2 °F /  1.2 °C 30.3in /  1026.1hPa Calm   2mph /  3.2km/h 95% 0in /  0.0mm 21 W/m2
12:50 35.6 °F /  2 °C 34.3 °F /  1.3 °C 30.3in /  1025.7hPa Calm   1mph /  1.6km/h 95% 0in /  0.0mm 21 W/m2
12:55 35.6 °F /  2 °C 34.5 °F /  1.4 °C 30.3in /  1025.7hPa WNW 0.9mph /  1.4km/h 4mph /  6.4km/h 96% 0in /  0.0mm 23 W/m2
13:01 35.6 °F /  2 °C 34.3 °F /  1.3 °C 30.3in /  1025.7hPa WNW 4mph /  6.4km/h 4mph /  6.4km/h 95% 0in /  0.0mm 21 W/m2
13:06 35.8 °F /  2.1 °C 34.5 °F /  1.4 °C 30.3in /  1025.7hPa NE 2.9mph /  4.7km/h 3mph /  4.8km/h 95% 0in /  0.0mm 21 W/m2
13:11 35.8 °F /  2.1 °C 34.5 °F /  1.4 °C 30.3in /  1025.7hPa NE 2mph /  3.2km/h 3mph /  4.8km/h 95% 0in /  0.0mm 19 W/m2
13:16 36 °F /  2.2 °C 34.7 °F /  1.5 °C 30.3in /  1025.7hPa NW 2mph /  3.2km/h 6mph /  9.7km/h 95% 0in /  0.0mm 23 W/m2
13:21 36 °F /  2.2 °C 34.9 °F /  1.6 °C 30.3in /  1025.7hPa NNW 2mph /  3.2km/h 3mph /  4.8km/h 96% 0in /  0.0mm 26 W/m2
13:26 36 °F /  2.2 °C 34.9 °F /  1.6 °C 30.3in /  1025.4hPa Calm   4mph /  6.4km/h 96% 0in /  0.0mm 28 W/m2
13:31 36.1 °F /  2.3 °C 35.1 °F /  1.7 °C 30.3in /  1025.4hPa WNW 2mph /  3.2km/h 3mph /  4.8km/h 96% 0in /  0.0mm 32 W/m2
13:36 36.1 °F /  2.3 °C 35.1 °F /  1.7 °C 30.3in /  1025.4hPa Calm   3mph /  4.8km/h 96% 0.01in /  0.2mm 26 W/m2
13:41 36.1 °F /  2.3 °C 35.1 °F /  1.7 °C 30.3in /  1025.4hPa Calm   2mph /  3.2km/h 96% 0.01in /  0.2mm 14 W/m2
13:46 36.1 °F /  2.3 °C 34.9 °F /  1.6 °C 30.3in /  1025.4hPa NW 0.9mph /  1.4km/h 3mph /  4.8km/h 95% 0.01in /  0.2mm 11 W/m2
13:51 36.3 °F /  2.4 °C 35.1 °F /  1.7 °C 30.3in /  1025.1hPa SSW 2mph /  3.2km/h 4mph /  6.4km/h 95% 0.01in /  0.2mm 19 W/m2
13:56 36.3 °F /  2.4 °C 35.1 °F /  1.7 °C 30.3in /  1025.1hPa WNW 0.9mph /  1.4km/h 4mph /  6.4km/h 95% 0.01in /  0.2mm 18 W/m2
14:01 36.3 °F /  2.4 °C 35.2 °F /  1.8 °C 30.3in /  1025.1hPa Calm   3mph /  4.8km/h 96% 0.01in /  0.2mm 23 W/m2
14:06 36.5 °F /  2.5 °C 35.4 °F /  1.9 °C 30.3in /  1025.1hPa WNW 0.9mph /  1.4km/h 2mph /  3.2km/h 96% 0.01in /  0.2mm 12 W/m2
14:11 36.5 °F /  2.5 °C 35.4 °F /  1.9 °C 30.3in /  1025.1hPa NW 2.9mph /  4.7km/h 4mph /  6.4km/h 96% 0.01in /  0.2mm 11 W/m2
14:16 36.5 °F /  2.5 °C 35.4 °F /  1.9 °C 30.3in /  1025.1hPa WNW 0.9mph /  1.4km/h 3mph /  4.8km/h 96% 0.01in /  0.2mm 11 W/m2
14:21 36.5 °F /  2.5 °C 35.4 °F /  1.9 °C 30.3in /  1025.1hPa WNW 2mph /  3.2km/h 4mph /  6.4km/h 96% 0.01in /  0.2mm 11 W/m2
14:26 36.7 °F /  2.6 °C 35.6 °F /  2 °C 30.3in /  1024.7hPa WNW 4mph /  6.4km/h 4mph /  6.4km/h 96% 0.01in /  0.2mm 12 W/m2
14:31 36.7 °F /  2.6 °C 35.4 °F /  1.9 °C 30.3in /  1025.1hPa Calm   1mph /  1.6km/h 95% 0.01in /  0.2mm 12 W/m2
14:36 36.7 °F /  2.6 °C 35.4 °F /  1.9 °C 30.3in /  1025.1hPa WNW 4.9mph /  7.9km/h 5mph /  8km/h 95% 0.01in /  0.2mm 11 W/m2
14:41 36.7 °F /  2.6 °C 35.4 °F /  1.9 °C 30.3in /  1025.1hPa WNW 2.9mph /  4.7km/h 4mph /  6.4km/h 95% 0.01in /  0.2mm 14 W/m2
14:46 36.7 °F /  2.6 °C 35.4 °F /  1.9 °C 30.3in /  1025.1hPa ENE 4mph /  6.4km/h 4mph /  6.4km/h 95% 0.01in /  0.2mm 21 W/m2
14:51 36.9 °F /  2.7 °C 35.6 °F /  2 °C 30.3in /  1025.1hPa WNW 6.9mph /  11.1km/h 7mph /  11.3km/h 95% 0.01in /  0.2mm 19 W/m2
14:56 36.9 °F /  2.7 °C 35.6 °F /  2 °C 30.3in /  1025.1hPa Calm   3mph /  4.8km/h 95% 0.01in /  0.2mm 16 W/m2
15:01 36.9 °F /  2.7 °C 35.6 °F /  2 °C 30.3in /  1025.1hPa West 2.9mph /  4.7km/h 6mph /  9.7km/h 95% 0.01in /  0.2mm 21 W/m2
15:06 36.9 °F /  2.7 °C 35.6 °F /  2 °C 30.3in /  1025.1hPa NW 4mph /  6.4km/h 7mph /  11.3km/h 95% 0.01in /  0.2mm 23 W/m2
15:11 36.9 °F /  2.7 °C 35.6 °F /  2 °C 30.3in /  1025.1hPa NNW 6mph /  9.7km/h 6mph /  9.7km/h 95% 0.01in /  0.2mm 16 W/m2
15:16 36.9 °F /  2.7 °C 35.6 °F /  2 °C 30.3in /  1025.1hPa WNW 0.9mph /  1.4km/h 7mph /  11.3km/h 95% 0.01in /  0.2mm 19 W/m2
15:21 36.9 °F /  2.7 °C 35.6 °F /  2 °C 30.3in /  1025.1hPa WNW 4mph /  6.4km/h 8mph /  12.9km/h 95% 0.01in /  0.2mm 16 W/m2
15:26 36.9 °F /  2.7 °C 35.6 °F /  2 °C 30.3in /  1025.1hPa NNW 6mph /  9.7km/h 7mph /  11.3km/h 95% 0.01in /  0.2mm 18 W/m2
15:31 36.9 °F /  2.7 °C 35.6 °F /  2 °C 30.3in /  1025.1hPa WNW 4mph /  6.4km/h 11mph /  17.7km/h 95% 0.01in /  0.2mm 19 W/m2
15:36 36.9 °F /  2.7 °C 35.6 °F /  2 °C 30.3in /  1025.1hPa WNW 2.9mph /  4.7km/h 9mph /  14.5km/h 95% 0in /  0.0mm 12 W/m2
15:41 36.9 °F /  2.7 °C 35.6 °F /  2 °C 30.3in /  1025.1hPa WNW 2.9mph /  4.7km/h 11mph /  17.7km/h 95% 0in /  0.0mm 16 W/m2
15:46 36.9 °F /  2.7 °C 35.6 °F /  2 °C 30.3in /  1025.1hPa WSW 2.9mph /  4.7km/h 4mph /  6.4km/h 95% 0in /  0.0mm 11 W/m2
15:51 36.9 °F /  2.7 °C 35.2 °F /  1.8 °C 30.3in /  1025.1hPa WSW 4.9mph /  7.9km/h 7mph /  11.3km/h 94% 0in /  0.0mm 11 W/m2
15:56 36.7 °F /  2.6 °C 35.1 °F /  1.7 °C 30.3in /  1024.7hPa WNW 2mph /  3.2km/h 5mph /  8km/h 94% 0in /  0.0mm 18 W/m2
16:01 36.7 °F /  2.6 °C 35.4 °F /  1.9 °C 30.3in /  1024.7hPa West 0.9mph /  1.4km/h 2mph /  3.2km/h 95% 0in /  0.0mm 12 W/m2
16:06 36.7 °F /  2.6 °C 35.4 °F /  1.9 °C 30.3in /  1024.7hPa WNW 0.9mph /  1.4km/h 6mph /  9.7km/h 95% 0in /  0.0mm 11 W/m2
16:11 36.7 °F /  2.6 °C 35.4 °F /  1.9 °C 30.3in /  1024.7hPa WNW 2mph /  3.2km/h 4mph /  6.4km/h 95% 0.01in /  0.2mm 11 W/m2
16:16 36.7 °F /  2.6 °C 35.4 °F /  1.9 °C 30.3in /  1024.7hPa WSW 4.9mph /  7.9km/h 7mph /  11.3km/h 95% 0.01in /  0.2mm 16 W/m2
16:21 36.7 °F /  2.6 °C 35.4 °F /  1.9 °C 30.3in /  1024.7hPa WSW 4mph /  6.4km/h 8mph /  12.9km/h 95% 0.01in /  0.2mm 19 W/m2
16:26 36.7 °F /  2.6 °C 35.4 °F /  1.9 °C 30.3in /  1024.7hPa NW 4mph /  6.4km/h 7mph /  11.3km/h 95% 0.01in /  0.2mm 19 W/m2
16:31 36.7 °F /  2.6 °C 35.1 °F /  1.7 °C 30.3in /  1024.7hPa WNW 2mph /  3.2km/h 8mph /  12.9km/h 94% 0.01in /  0.2mm 14 W/m2
16:36 36.7 °F /  2.6 °C 35.1 °F /  1.7 °C 30.3in /  1024.7hPa WNW 2mph /  3.2km/h 3mph /  4.8km/h 94% 0.01in /  0.2mm 16 W/m2
16:41 36.7 °F /  2.6 °C 35.1 °F /  1.7 °C 30.3in /  1024.7hPa WNW 2mph /  3.2km/h 4mph /  6.4km/h 94% 0.01in /  0.2mm 12 W/m2
16:46 36.7 °F /  2.6 °C 35.1 °F /  1.7 °C 30.3in /  1024.4hPa West 8.1mph /  13km/h 8mph /  12.9km/h 94% 0.01in /  0.2mm 11 W/m2
16:51 36.9 °F /  2.7 °C 35.2 °F /  1.8 °C 30.3in /  1024.7hPa West 2.9mph /  4.7km/h 4mph /  6.4km/h 94% 0.01in /  0.2mm 9 W/m2
16:56 36.9 °F /  2.7 °C 35.2 °F /  1.8 °C 30.3in /  1024.7hPa WNW 2.9mph /  4.7km/h 5mph /  8km/h 94% 0.01in /  0.2mm 5 W/m2
17:01 36.9 °F /  2.7 °C 35.2 °F /  1.8 °C 30.3in /  1024.7hPa West 2mph /  3.2km/h 6mph /  9.7km/h 94% 0.01in /  0.2mm 0 W/m2
17:06 36.9 °F /  2.7 °C 35.2 °F /  1.8 °C 30.3in /  1024.7hPa Calm   7mph /  11.3km/h 94% 0.01in /  0.2mm 0 W/m2
17:11 36.9 °F /  2.7 °C 35.2 °F /  1.8 °C 30.3in /  1024.4hPa Calm   3mph /  4.8km/h 94% 0in /  0.0mm 0 W/m2
17:16 36.9 °F /  2.7 °C 35.2 °F /  1.8 °C 30.3in /  1024.7hPa NW 2.9mph /  4.7km/h 3mph /  4.8km/h 94% 0in /  0.0mm 0 W/m2
17:21 36.9 °F /  2.7 °C 35.2 °F /  1.8 °C 30.3in /  1024.7hPa NW 2.9mph /  4.7km/h 3mph /  4.8km/h 94% 0in /  0.0mm 0 W/m2
17:26 36.9 °F /  2.7 °C 35.2 °F /  1.8 °C 30.3in /  1024.7hPa Calm   3mph /  4.8km/h 94% 0in /  0.0mm 0 W/m2
17:31 36.9 °F /  2.7 °C 35.2 °F /  1.8 °C 30.3in /  1024.7hPa Calm   1mph /  1.6km/h 94% 0in /  0.0mm 0 W/m2
17:36 36.9 °F /  2.7 °C 35.2 °F /  1.8 °C 30.3in /  1024.7hPa NW 2.9mph /  4.7km/h 3mph /  4.8km/h 94% 0in /  0.0mm 0 W/m2
17:41 36.9 °F /  2.7 °C 35.2 °F /  1.8 °C 30.3in /  1024.7hPa Calm   4mph /  6.4km/h 94% 0in /  0.0mm 0 W/m2
17:46 36.9 °F /  2.7 °C 35.2 °F /  1.8 °C 30.3in /  1024.7hPa WSW 0.9mph /  1.4km/h 3mph /  4.8km/h 94% 0.01in /  0.2mm 0 W/m2
17:51 36.9 °F /  2.7 °C 35.2 °F /  1.8 °C 30.3in /  1024.7hPa West 2mph /  3.2km/h 4mph /  6.4km/h 94% 0.01in /  0.2mm 0 W/m2
17:56 36.9 °F /  2.7 °C 35.2 °F /  1.8 °C 30.3in /  1024.7hPa Calm   1mph /  1.6km/h 94% 0.01in /  0.2mm 0 W/m2
18:01 36.9 °F /  2.7 °C 35.2 °F /  1.8 °C 30.3in /  1024.4hPa NW 2mph /  3.2km/h 2mph /  3.2km/h 94% 0.01in /  0.2mm 0 W/m2
18:06 37 °F /  2.8 °C 35.4 °F /  1.9 °C 30.3in /  1024.7hPa NW 4.9mph /  7.9km/h 5mph /  8km/h 94% 0.01in /  0.2mm 0 W/m2
18:11 37 °F /  2.8 °C 35.4 °F /  1.9 °C 30.3in /  1024.4hPa NW 2mph /  3.2km/h 5mph /  8km/h 94% 0.01in /  0.2mm 0 W/m2
18:16 37 °F /  2.8 °C 35.4 °F /  1.9 °C 30.3in /  1024.7hPa WNW 2.9mph /  4.7km/h 4mph /  6.4km/h 94% 0.01in /  0.2mm 0 W/m2
18:21 37.2 °F /  2.9 °C 35.6 °F /  2 °C 30.3in /  1024.4hPa WNW 2.9mph /  4.7km/h 3mph /  4.8km/h 94% 0.01in /  0.2mm 0 W/m2
18:26 37.2 °F /  2.9 °C 35.6 °F /  2 °C 30.3in /  1024.4hPa NW 4mph /  6.4km/h 4mph /  6.4km/h 94% 0.01in /  0.2mm 0 W/m2
18:31 37.4 °F /  3 °C 35.8 °F /  2.1 °C 30.3in /  1024.4hPa West 5mph /  8km/h 5mph /  8km/h 94% 0.01in /  0.2mm 0 W/m2
18:37 37.4 °F /  3 °C 35.8 °F /  2.1 °C 30.3in /  1024.4hPa WNW 2.9mph /  4.7km/h 4mph /  6.4km/h 94% 0.01in /  0.2mm 0 W/m2
18:42 37.4 °F /  3 °C 35.8 °F /  2.1 °C 30.3in /  1024.7hPa West 2mph /  3.2km/h 4mph /  6.4km/h 94% 0.01in /  0.2mm 0 W/m2
18:47 37.6 °F /  3.1 °C 36 °F /  2.2 °C 30.3in /  1024.7hPa West 6mph /  9.7km/h 10mph /  16.1km/h 94% 0in /  0.0mm 0 W/m2
18:52 37.6 °F /  3.1 °C 36 °F /  2.2 °C 30.3in /  1024.4hPa West 2.9mph /  4.7km/h 11mph /  17.7km/h 94% 0in /  0.0mm 0 W/m2
18:57 37.6 °F /  3.1 °C 36 °F /  2.2 °C 30.3in /  1024.7hPa WNW 2mph /  3.2km/h 6mph /  9.7km/h 94% 0in /  0.0mm 0 W/m2
19:02 37.6 °F /  3.1 °C 36 °F /  2.2 °C 30.3in /  1024.4hPa North 2.9mph /  4.7km/h 8mph /  12.9km/h 94% 0in /  0.0mm 0 W/m2
19:07 37.8 °F /  3.2 °C 36.1 °F /  2.3 °C 30.3in /  1024.4hPa West 2.9mph /  4.7km/h 7mph /  11.3km/h 94% 0in /  0.0mm 0 W/m2
19:12 37.8 °F /  3.2 °C 36.5 °F /  2.5 °C 30.3in /  1024.4hPa North 2.9mph /  4.7km/h 13mph /  20.9km/h 95% 0in /  0.0mm 0 W/m2
19:17 37.8 °F /  3.2 °C 36.5 °F /  2.5 °C 30.3in /  1024.4hPa NW 6.9mph /  11.1km/h 10mph /  16.1km/h 95% 0in /  0.0mm 0 W/m2
19:22 37.8 °F /  3.2 °C 36.5 °F /  2.5 °C 30.3in /  1024.4hPa WNW 4.9mph /  7.9km/h 12mph /  19.3km/h 95% 0in /  0.0mm 0 W/m2
19:27 37.8 °F /  3.2 °C 36.1 °F /  2.3 °C 30.3in /  1024.4hPa WNW 4mph /  6.4km/h 8mph /  12.9km/h 94% 0in /  0.0mm 0 W/m2
19:32 37.8 °F /  3.2 °C 36.1 °F /  2.3 °C 30.3in /  1024.4hPa West 2.9mph /  4.7km/h 8mph /  12.9km/h 94% 0.01in /  0.2mm 0 W/m2
19:37 37.9 °F /  3.3 °C 36.3 °F /  2.4 °C 30.3in /  1024.4hPa WSW 8.9mph /  14.3km/h 11mph /  17.7km/h 94% 0.01in /  0.2mm 0 W/m2
19:42 37.9 °F /  3.3 °C 36.3 °F /  2.4 °C 30.3in /  1024.4hPa WNW 4.9mph /  7.9km/h 10mph /  16.1km/h 94% 0.01in /  0.2mm 0 W/m2
19:47 37.9 °F /  3.3 °C 36.3 °F /  2.4 °C 30.3in /  1024.4hPa WNW 2.9mph /  4.7km/h 14mph /  22.5km/h 94% 0.01in /  0.2mm 0 W/m2
19:52 38.1 °F /  3.4 °C 36.5 °F /  2.5 °C 30.3in /  1024.4hPa WSW 4.9mph /  7.9km/h 11mph /  17.7km/h 94% 0.01in /  0.2mm 0 W/m2
19:57 38.1 °F /  3.4 °C 36.5 °F /  2.5 °C 30.3in /  1024.4hPa West 4mph /  6.4km/h 12mph /  19.3km/h 94% 0.01in /  0.2mm 0 W/m2
20:02 38.1 °F /  3.4 °C 36.5 °F /  2.5 °C 30.3in /  1024.4hPa NW 8.1mph /  13km/h 9mph /  14.5km/h 94% 0.01in /  0.2mm 0 W/m2
20:07 38.1 °F /  3.4 °C 36.5 °F /  2.5 °C 30.3in /  1024.4hPa WNW 6.9mph /  11.1km/h 9mph /  14.5km/h 94% 0.01in /  0.2mm 0 W/m2
20:12 38.1 °F /  3.4 °C 36.5 °F /  2.5 °C 30.3in /  1024.4hPa West 6.9mph /  11.1km/h 11mph /  17.7km/h 94% 0.01in /  0.2mm 0 W/m2
20:17 38.3 °F /  3.5 °C 36.7 °F /  2.6 °C 30.2in /  1024.0hPa West 4mph /  6.4km/h 11mph /  17.7km/h 94% 0.01in /  0.2mm 0 W/m2
20:22 38.3 °F /  3.5 °C 36.7 °F /  2.6 °C 30.2in /  1024.0hPa WSW 4.9mph /  7.9km/h 12mph /  19.3km/h 94% 0.01in /  0.2mm 0 W/m2
20:27 38.3 °F /  3.5 °C 36.7 °F /  2.6 °C 30.2in /  1024.0hPa West 2.9mph /  4.7km/h 8mph /  12.9km/h 94% 0.01in /  0.2mm 0 W/m2
20:32 38.3 °F /  3.5 °C 36.7 °F /  2.6 °C 30.2in /  1024.0hPa West 0.9mph /  1.4km/h 12mph /  19.3km/h 94% 0in /  0.0mm 0 W/m2
20:37 38.3 °F /  3.5 °C 36.7 °F /  2.6 °C 30.3in /  1024.4hPa WNW 4.9mph /  7.9km/h 9mph /  14.5km/h 94% 0in /  0.0mm 0 W/m2
20:42 38.5 °F /  3.6 °C 36.9 °F /  2.7 °C 30.3in /  1024.4hPa West 6mph /  9.7km/h 12mph /  19.3km/h 94% 0in /  0.0mm 0 W/m2
20:47 38.5 °F /  3.6 °C 36.9 °F /  2.7 °C 30.3in /  1024.4hPa WSW 6.9mph /  11.1km/h 10mph /  16.1km/h 94% 0in /  0.0mm 0 W/m2
20:52 38.5 °F /  3.6 °C 36.9 °F /  2.7 °C 30.3in /  1024.4hPa WNW 8.1mph /  13km/h 12mph /  19.3km/h 94% 0in /  0.0mm 0 W/m2
20:57 38.5 °F /  3.6 °C 36.9 °F /  2.7 °C 30.3in /  1024.4hPa West 2.9mph /  4.7km/h 8mph /  12.9km/h 94% 0in /  0.0mm 0 W/m2
21:02 38.5 °F /  3.6 °C 36.9 °F /  2.7 °C 30.3in /  1024.4hPa WNW 6.9mph /  11.1km/h 12mph /  19.3km/h 94% 0in /  0.0mm 0 W/m2
21:07 38.5 °F /  3.6 °C 37.2 °F /  2.9 °C 30.3in /  1024.4hPa WNW 2.9mph /  4.7km/h 9mph /  14.5km/h 95% 0in /  0.0mm 0 W/m2
21:12 38.5 °F /  3.6 °C 37.2 °F /  2.9 °C 30.2in /  1024.0hPa WNW 4mph /  6.4km/h 8mph /  12.9km/h 95% 0in /  0.0mm 0 W/m2
21:17 38.5 °F /  3.6 °C 37.2 °F /  2.9 °C 30.2in /  1024.0hPa WNW 4.9mph /  7.9km/h 13mph /  20.9km/h 95% 0in /  0.0mm 0 W/m2
21:22 38.5 °F /  3.6 °C 37.2 °F /  2.9 °C 30.2in /  1024.0hPa WNW 8.1mph /  13km/h 8mph /  12.9km/h 95% 0in /  0.0mm 0 W/m2
21:27 38.5 °F /  3.6 °C 37.2 °F /  2.9 °C 30.2in /  1024.0hPa WNW 4mph /  6.4km/h 13mph /  20.9km/h 95% 0.01in /  0.2mm 0 W/m2
21:32 38.5 °F /  3.6 °C 37.2 °F /  2.9 °C 30.3in /  1024.4hPa WSW 2.9mph /  4.7km/h 6mph /  9.7km/h 95% 0.01in /  0.2mm 0 W/m2
21:37 38.5 °F /  3.6 °C 37.2 °F /  2.9 °C 30.3in /  1024.4hPa WNW 2.9mph /  4.7km/h 10mph /  16.1km/h 95% 0.01in /  0.2mm 0 W/m2
21:42 38.3 °F /  3.5 °C 37 °F /  2.8 °C 30.3in /  1024.4hPa WNW 6mph /  9.7km/h 9mph /  14.5km/h 95% 0.01in /  0.2mm 0 W/m2
21:47 38.3 °F /  3.5 °C 37 °F /  2.8 °C 30.3in /  1024.4hPa NNW 4mph /  6.4km/h 6mph /  9.7km/h 95% 0.01in /  0.2mm 0 W/m2
21:52 38.3 °F /  3.5 °C 37 °F /  2.8 °C 30.3in /  1024.4hPa West 2.9mph /  4.7km/h 10mph /  16.1km/h 95% 0.01in /  0.2mm 0 W/m2
21:57 38.3 °F /  3.5 °C 37 °F /  2.8 °C 30.3in /  1024.4hPa WNW 2.9mph /  4.7km/h 7mph /  11.3km/h 95% 0.02in /  0.5mm 0 W/m2
22:02 38.3 °F /  3.5 °C 37 °F /  2.8 °C 30.3in /  1024.4hPa West 0.9mph /  1.4km/h 5mph /  8km/h 95% 0.02in /  0.5mm 0 W/m2
22:07 38.3 °F /  3.5 °C 37 °F /  2.8 °C 30.3in /  1024.4hPa NNE 4.9mph /  7.9km/h 9mph /  14.5km/h 95% 0.02in /  0.5mm 0 W/m2
22:12 38.3 °F /  3.5 °C 37 °F /  2.8 °C 30.2in /  1024.0hPa NW 8.9mph /  14.3km/h 13mph /  20.9km/h 95% 0.02in /  0.5mm 0 W/m2
22:17 38.3 °F /  3.5 °C 37 °F /  2.8 °C 30.3in /  1024.4hPa West 8.1mph /  13km/h 11mph /  17.7km/h 95% 0.02in /  0.5mm 0 W/m2
22:22 38.3 °F /  3.5 °C 37 °F /  2.8 °C 30.3in /  1024.4hPa West 6mph /  9.7km/h 6mph /  9.7km/h 95% 0.02in /  0.5mm 0 W/m2
22:27 38.3 °F /  3.5 °C 37 °F /  2.8 °C 30.3in /  1024.4hPa NW 2.9mph /  4.7km/h 11mph /  17.7km/h 95% 0.02in /  0.5mm 0 W/m2
22:32 38.5 °F /  3.6 °C 37.2 °F /  2.9 °C 30.3in /  1024.4hPa West 4mph /  6.4km/h 10mph /  16.1km/h 95% 0.02in /  0.5mm 0 W/m2
22:37 38.5 °F /  3.6 °C 37.2 °F /  2.9 °C 30.3in /  1024.4hPa WSW 8.1mph /  13km/h 12mph /  19.3km/h 95% 0.02in /  0.5mm 0 W/m2
22:42 38.5 °F /  3.6 °C 37.2 °F /  2.9 °C 30.3in /  1024.4hPa WSW 4mph /  6.4km/h 8mph /  12.9km/h 95% 0.02in /  0.5mm 0 W/m2
22:47 38.5 °F /  3.6 °C 37.2 °F /  2.9 °C 30.3in /  1024.4hPa NW 4.9mph /  7.9km/h 11mph /  17.7km/h 95% 0.02in /  0.5mm 0 W/m2
22:52 38.3 °F /  3.5 °C 37 °F /  2.8 °C 30.3in /  1024.4hPa NW 4mph /  6.4km/h 9mph /  14.5km/h 95% 0.02in /  0.5mm 0 W/m2
22:57 38.5 °F /  3.6 °C 37.2 °F /  2.9 °C 30.3in /  1024.7hPa West 2.9mph /  4.7km/h 7mph /  11.3km/h 95% 0.01in /  0.2mm 0 W/m2
23:02 38.3 °F /  3.5 °C 37 °F /  2.8 °C 30.3in /  1024.7hPa NW 12.1mph /  19.5km/h 14mph /  22.5km/h 95% 0.01in /  0.2mm 0 W/m2
23:07 38.5 °F /  3.6 °C 37.2 °F /  2.9 °C 30.3in /  1024.4hPa West 8.9mph /  14.3km/h 10mph /  16.1km/h 95% 0.01in /  0.2mm 0 W/m2
23:12 38.5 °F /  3.6 °C 37.2 °F /  2.9 °C 30.3in /  1024.7hPa NW 4mph /  6.4km/h 14mph /  22.5km/h 95% 0.01in /  0.2mm 0 W/m2
23:17 38.5 °F /  3.6 °C 37.2 °F /  2.9 °C 30.3in /  1024.4hPa NW 4.9mph /  7.9km/h 7mph /  11.3km/h 95% 0.01in /  0.2mm 0 W/m2
23:22 38.5 °F /  3.6 °C 37.2 °F /  2.9 °C 30.3in /  1024.7hPa West 11mph /  17.7km/h 14mph /  22.5km/h 95% 0in /  0.0mm 0 W/m2
23:27 38.5 °F /  3.6 °C 37.2 °F /  2.9 °C 30.3in /  1024.4hPa WNW 8.1mph /  13km/h 13mph /  20.9km/h 95% 0in /  0.0mm 0 W/m2
23:32 38.5 °F /  3.6 °C 37.2 °F /  2.9 °C 30.3in /  1024.4hPa NW 4.9mph /  7.9km/h 9mph /  14.5km/h 95% 0in /  0.0mm 0 W/m2
23:37 38.5 °F /  3.6 °C 37.2 °F /  2.9 °C 30.3in /  1024.7hPa WSW 4mph /  6.4km/h 10mph /  16.1km/h 95% 0in /  0.0mm 0 W/m2
23:42 38.5 °F /  3.6 °C 37.2 °F /  2.9 °C 30.3in /  1024.7hPa West 6mph /  9.7km/h 11mph /  17.7km/h 95% 0in /  0.0mm 0 W/m2
23:47 38.5 °F /  3.6 °C 37.2 °F /  2.9 °C 30.3in /  1024.7hPa WNW 4mph /  6.4km/h 8mph /  12.9km/h 95% 0in /  0.0mm 0 W/m2
23:52 38.5 °F /  3.6 °C 37.2 °F /  2.9 °C 30.3in /  1024.7hPa WNW 4mph /  6.4km/h 9mph /  14.5km/h 95% 0in /  0.0mm 0 W/m2
23:57 38.3 °F /  3.5 °C 37 °F /  2.8 °C 30.3in /  1024.7hPa West 10.1mph /  16.3km/h 12mph /  19.3km/h 95% 0in /  0.0mm 0 W/m2
Juneau County Weather
Compliments of Weather Underground - 4 mb